Flugplatz Bad Frankenhausen

Für EDOF sind keine METAR/TAF Berichte vorhanden.
Es werden die Flugwettermeldungen vom Flugplatz Erfurt in 45 km Entfernung angezeigt.

Bericht für EDDE

vom 23.02. um 21:50 UTC

Wind 25 kt aus 300°

Sichtweite 10 km oder mehr

gering bewölkt in 3000 ft

Temperatur 5.0°C

Taupunkt -1.0°C

Luftfeuchtigkeit 65%

Luftdruck 1016 hPa

EDDE 232150Z 30025KT 9999 FEW030 05/M01 Q1016

Prognose für EDDE

vom 23.02. um 00:00 UTC

Zwischen 00:00 UTC und 00:00 UTC

Wind 30 kt aus 240° in Böen 40 kt

Sichtweite 10 km oder mehr

aufgebrochene Bewölkung in 3000 ft


Zwischen 00:00 UTC und 00:00 UTC zeitweise

Wind 35 kt aus 300° in Böen 45 kt

Sichtweite 4000 m

Regenschauer

aufgebrochene Bewölkung in 1200 ft


Zwischen 00:00 und 00:00 UTC übergehend zu

Wind 30 kt aus 300° in Böen 40 kt

Sichtweite 10 km oder mehr

aufgebrochene Bewölkung in 3000 ft


Zwischen 00:00 und 00:00 UTC übergehend zu

Wind 13 kt aus 280°

Sichtweite 10 km oder mehr

aufgebrochene Bewölkung in 3000 ft


Am 24.02. zwischen 00:00 und 00:00 UTC übergehend zu

Wind 8 kt aus 260°

Sichtweite 10 km oder mehr

aufgebrochene Bewölkung in 3000 ft


Am 24.02. zwischen 00:00 und 00:00 UTC übergehend zu

Wind 13 kt aus 240°

Sichtweite 10 km oder mehr

aufgebrochene Bewölkung in 3000 ft

TAF EDDE 231700Z 2318/2418 24030G40KT 9999 BKN030 BECMG 2318/2321 30030G40KT TEMPO 2318/2320 30035G45KT 4000 SHRA BKN012CB BECMG 2321/2324 28013KT BECMG 2401/2404 26008KT BECMG 2415/2418 24013KT
Impressum